Time;durP1;ratioP1;P1;durP2;ratioP2;P2;SDS_P1;SDS_P2;PMS_P1;PMS_P2;Temp;Humidity;BMP_temperature;BMP_pressure;BME280_temperature;BME280_humidity;BME280_pressure;Samples;Min_cycle;Max_cycle;Signal;HPM_P1;HPM_P2
2023/12/26 00:01:44;;;;;;;0.77;0.77;;;;;;;9.72;59.73;99510.25;5363475;26;20075;-90
2023/12/26 00:04:09;;;;;;;;;;;;;;;9.66;59.72;99513.03;5345647;26;20059;-90
2023/12/26 00:06:34;;;;;;;0.07;0.07;;;;;;;9.81;59.73;99507.34;5363120;26;21299;-90
2023/12/26 00:09:00;;;;;;;0.25;0.05;;;;;;;9.88;59.73;99515.78;5345035;26;20139;-89
2023/12/26 00:11:25;;;;;;;0.15;0.15;;;;;;;9.69;59.72;99525.06;5344639;26;20075;-91
2023/12/26 00:13:51;;;;;;;0.13;0.13;;;;;;;9.66;59.72;99526.00;5326488;26;20100;-90
2023/12/26 00:16:16;;;;;;;0.10;0.10;;;;;;;9.60;59.71;99518.44;5345242;26;20108;-91
2023/12/26 00:18:42;;;;;;;0.32;0.32;;;;;;;9.75;59.72;99512.75;5327059;26;20425;-91
2023/12/26 00:21:07;;;;;;;3.25;1.17;;;;;;;9.74;59.72;99518.00;5327615;26;20074;-92
2023/12/26 00:23:34;;;;;;;0.43;0.43;;;;;;;9.66;59.72;99519.97;5346062;26;20135;-91
2023/12/26 00:25:59;;;;;;;0.65;0.50;;;;;;;9.77;59.72;99528.28;5327589;26;20101;-91
2023/12/26 00:28:25;;;;;;;0.10;0.10;;;;;;;9.85;59.72;99526.28;5345532;26;20091;-91
2023/12/26 00:30:50;;;;;;;1.90;1.23;;;;;;;9.64;59.71;99530.41;5327613;26;20142;-90
2023/12/26 00:33:16;;;;;;;0.10;0.10;;;;;;;9.72;59.72;99525.84;5329042;26;20116;-91
2023/12/26 00:35:41;;;;;;;0.20;0.20;;;;;;;9.91;59.73;99520.03;5326681;26;20107;-91
2023/12/26 00:38:06;;;;;;;0.37;0.20;;;;;;;9.78;59.71;99523.03;5327048;26;20470;-92
2023/12/26 00:40:32;;;;;;;0.08;0.08;;;;;;;9.87;59.72;99523.63;5326627;26;20107;-91
2023/12/26 00:42:57;;;;;;;0.10;0.10;;;;;;;9.93;59.73;99524.28;5345338;26;20131;-90
2023/12/26 00:45:23;;;;;;;0.93;0.93;;;;;;;9.90;59.73;99516.56;5345368;26;20092;-90
2023/12/26 00:47:49;;;;;;;0.57;0.57;;;;;;;9.98;59.73;99518.94;5326974;26;20086;-90
2023/12/26 00:50:16;;;;;;;2.87;1.85;;;;;;;9.78;59.72;99517.00;5345333;26;20102;-90
2023/12/26 00:53:10;;;;;;;;;;;;;;;;;;;;;
2023/12/26 00:55:36;;;;;;;0.68;0.68;;;;;;;9.91;59.73;99533.03;5350051;26;35685;-93
2023/12/26 00:58:01;;;;;;;0.68;0.65;;;;;;;9.77;59.71;99516.16;5347074;26;20061;-92
2023/12/26 01:00:27;;;;;;;0.45;0.43;;;;;;;9.70;59.71;99517.25;5327975;26;20369;-93
2023/12/26 01:02:53;;;;;;;0.17;0.17;;;;;;;9.69;59.71;99512.91;5327594;26;22853;-93
2023/12/26 01:05:18;;;;;;;0.10;0.10;;;;;;;9.80;59.73;99515.19;5328088;26;20067;-93
2023/12/26 01:07:44;;;;;;;0.60;0.35;;;;;;;9.71;59.71;99507.69;5347478;26;20088;-93
2023/12/26 01:10:09;;;;;;;1.58;1.48;;;;;;;9.44;59.70;99486.03;5345778;26;25913;-92
2023/12/26 01:12:35;;;;;;;0.73;0.73;;;;;;;9.40;59.70;99493.06;5328510;26;20143;-93
2023/12/26 01:15:00;;;;;;;0.17;0.17;;;;;;;9.49;59.71;99518.78;5347125;26;20068;-93
2023/12/26 01:17:26;;;;;;;0.30;0.30;;;;;;;9.51;59.70;99526.53;5327961;26;20052;-92
2023/12/26 01:19:51;;;;;;;0.17;0.17;;;;;;;9.51;59.71;99518.72;5327692;26;20117;-93
2023/12/26 01:22:16;;;;;;;0.00;0.00;;;;;;;9.42;59.71;99521.59;5327431;26;20126;-93
2023/12/26 01:24:43;;;;;;;0.40;0.40;;;;;;;9.64;59.72;99517.41;5327967;26;20095;-92
2023/12/26 01:27:08;;;;;;;0.88;0.85;;;;;;;9.49;59.71;99516.19;5328871;26;20417;-92
2023/12/26 01:29:33;;;;;;;0.35;0.35;;;;;;;9.36;59.70;99516.59;5327944;26;20143;-93
2023/12/26 01:31:59;;;;;;;0.10;0.10;;;;;;;9.37;59.70;99519.13;5330113;26;20075;-90
2023/12/26 01:34:24;;;;;;;0.00;0.00;;;;;;;9.40;59.70;99519.03;5328595;26;20127;-91
2023/12/26 01:36:50;;;;;;;0.62;0.62;;;;;;;9.38;59.70;99517.41;5365403;26;20109;-91
2023/12/26 01:39:16;;;;;;;0.40;0.28;;;;;;;9.28;59.70;99522.03;5327473;26;20071;-91
2023/12/26 01:41:41;;;;;;;0.20;0.20;;;;;;;9.59;59.71;99516.72;5346438;26;20427;-91
2023/12/26 01:44:07;;;;;;;1.45;0.88;;;;;;;9.28;59.69;99513.37;5327761;26;20045;-91
2023/12/26 01:46:32;;;;;;;1.17;0.90;;;;;;;9.39;59.70;99506.94;5328500;26;20089;-93
2023/12/26 01:48:57;;;;;;;0.20;0.20;;;;;;;9.61;59.71;99520.13;5347443;26;20099;-92
2023/12/26 01:51:23;;;;;;;0.00;0.00;;;;;;;9.15;59.69;99528.47;5347083;26;20113;-91
2023/12/26 01:53:49;;;;;;;0.65;0.65;;;;;;;8.96;59.67;99527.31;5328952;26;20087;-92
2023/12/26 01:56:15;;;;;;;0.08;0.08;;;;;;;8.88;59.67;99537.91;5329399;26;20044;-94
2023/12/26 01:58:40;;;;;;;2.50;1.02;;;;;;;9.01;59.68;99521.09;5329698;26;20131;-93
2023/12/26 02:01:05;;;;;;;0.10;0.10;;;;;;;8.83;59.67;99516.44;5329628;26;20096;-93
2023/12/26 02:03:32;;;;;;;0.00;0.00;;;;;;;8.87;59.67;99510.25;5329441;26;20066;-95
2023/12/26 02:05:59;;;;;;;0.08;0.08;;;;;;;8.97;59.68;99511.69;5328854;26;20044;-92
2023/12/26 02:08:25;;;;;;;0.08;0.08;;;;;;;8.97;59.67;99516.03;5328423;26;20055;-91
2023/12/26 02:10:50;;;;;;;0.00;0.00;;;;;;;8.93;59.67;99507.47;5346491;26;20111;-91
2023/12/26 02:13:16;;;;;;;0.28;0.28;;;;;;;8.90;59.68;99502.38;5346408;26;20052;-92
2023/12/26 02:15:41;;;;;;;0.62;0.62;;;;;;;9.04;59.68;99509.78;5328288;26;20060;-92
2023/12/26 02:18:07;;;;;;;0.00;0.00;;;;;;;8.95;59.67;99503.09;5346221;26;20071;-91
2023/12/26 02:20:32;;;;;;;0.62;0.45;;;;;;;8.96;59.67;99494.41;5327998;26;20413;-91
2023/12/26 02:22:58;;;;;;;1.10;0.75;;;;;;;8.90;59.68;99497.19;5328476;26;20052;-92
2023/12/26 02:25:23;;;;;;;8.65;1.17;;;;;;;8.93;59.67;99497.94;5328111;26;20131;-92
2023/12/26 02:27:49;;;;;;;3.08;0.88;;;;;;;8.76;59.67;99497.59;5346920;26;20073;-92
2023/12/26 02:30:20;;;;;;;0.00;0.00;;;;;;;8.68;59.66;99507.34;5329115;26;20076;-92
2023/12/26 02:32:46;;;;;;;0.22;0.22;;;;;;;8.70;59.66;99507.28;5331694;26;20845;-91
2023/12/26 02:35:12;;;;;;;0.62;0.62;;;;;;;8.84;59.67;99497.37;5329726;26;20135;-93
2023/12/26 02:37:37;;;;;;;0.57;0.57;;;;;;;8.57;59.65;99502.47;5328986;26;20051;-92
2023/12/26 02:40:03;;;;;;;1.35;1.00;;;;;;;8.78;59.67;99495.81;5329354;26;20060;-93
2023/12/26 02:42:29;;;;;;;0.60;0.60;;;;;;;8.69;59.66;99498.66;5328673;26;20458;-91
2023/12/26 02:44:58;;;;;;;0.62;0.62;;;;;;;8.41;59.64;99503.75;5328508;26;20564;-91
2023/12/26 02:47:23;;;;;;;0.10;0.10;;;;;;;8.36;59.64;99499.59;5328102;26;20071;-91
2023/12/26 02:49:49;;;;;;;0.00;0.00;;;;;;;8.36;59.63;99497.00;5327837;26;20397;-91
2023/12/26 02:52:14;;;;;;;0.28;0.28;;;;;;;8.18;59.63;99495.72;5326941;26;20092;-91
2023/12/26 02:54:40;;;;;;;0.08;0.08;;;;;;;8.29;59.63;99504.94;5326971;26;20126;-89
2023/12/26 02:57:05;;;;;;;0.00;0.00;;;;;;;8.27;59.64;99509.28;5326187;26;22767;-90
2023/12/26 02:59:30;;;;;;;0.28;0.28;;;;;;;8.32;59.64;99511.78;5327087;26;20117;-90
2023/12/26 03:01:57;;;;;;;1.35;0.32;;;;;;;8.44;59.65;99503.69;5345029;26;20113;-89
2023/12/26 03:04:23;;;;;;;0.00;0.00;;;;;;;8.32;59.64;99510.03;5345761;26;20416;-90
2023/12/26 03:06:48;;;;;;;1.95;1.65;;;;;;;8.48;59.64;99497.50;5345350;26;20079;-91
2023/12/26 03:09:13;;;;;;;0.45;0.45;;;;;;;8.76;59.66;99492.41;5326687;26;20083;-89
2023/12/26 03:11:39;;;;;;;0.17;0.17;;;;;;;8.39;59.64;99496.91;5326455;26;20872;-91
2023/12/26 03:14:12;;;;;;;0.30;0.30;;;;;;;8.40;59.65;99502.06;5327297;26;20157;-92
2023/12/26 03:16:37;;;;;;;1.37;1.27;;;;;;;8.51;59.66;99491.37;5329521;26;20729;-92
2023/12/26 03:19:02;;;;;;;0.00;0.00;;;;;;;8.34;59.64;99486.69;5328349;26;20116;-91
2023/12/26 03:21:28;;;;;;;0.22;0.22;;;;;;;8.66;59.65;99487.53;5326861;26;26505;-91
2023/12/26 03:23:53;;;;;;;0.03;0.03;;;;;;;8.56;59.65;99489.53;5364641;26;20647;-91
2023/12/26 03:26:19;;;;;;;4.20;0.75;;;;;;;8.33;59.64;99490.13;5327487;26;20153;-91
2023/12/26 03:28:44;;;;;;;0.25;0.15;;;;;;;8.32;59.64;99483.25;5326917;26;26020;-91
2023/12/26 03:31:09;;;;;;;2.12;1.87;;;;;;;8.23;59.63;99479.12;5346178;26;20072;-92
2023/12/26 03:33:38;;;;;;;0.00;0.00;;;;;;;8.39;59.65;99481.34;5330139;26;20106;-89
2023/12/26 03:36:04;;;;;;;0.00;0.00;;;;;;;8.30;59.64;99475.50;5327383;26;26216;-91
2023/12/26 03:38:29;;;;;;;0.00;0.00;;;;;;;8.22;59.64;99477.44;5327732;26;20115;-92
2023/12/26 03:40:56;;;;;;;0.15;0.15;;;;;;;8.20;59.63;99471.44;5347063;26;20463;-91
2023/12/26 03:43:22;;;;;;;2.08;1.65;;;;;;;8.15;59.64;99467.28;5347040;26;20062;-91
2023/12/26 03:45:48;;;;;;;1.35;1.25;;;;;;;8.05;59.62;99453.72;5324931;26;20115;-90
2023/12/26 03:48:14;;;;;;;0.05;0.05;;;;;;;8.09;59.63;99452.75;5345231;26;20060;-91
2023/12/26 03:50:39;;;;;;;0.00;0.00;;;;;;;7.88;59.62;99450.72;5344455;26;22705;-89
2023/12/26 03:53:05;;;;;;;0.80;0.80;;;;;;;7.86;59.62;99448.16;5325852;26;26332;-90
2023/12/26 03:55:30;;;;;;;0.40;0.40;;;;;;;7.67;59.60;99446.94;5363686;26;20087;-89
2023/12/26 03:57:55;;;;;;;0.00;0.00;;;;;;;7.74;59.61;99448.47;5363240;26;20129;-90
2023/12/26 04:00:21;;;;;;;0.68;0.68;;;;;;;7.73;59.60;99445.91;5325950;26;20611;-92
2023/12/26 04:02:47;;;;;;;0.80;0.80;;;;;;;7.87;59.62;99443.84;5344796;26;20059;-91
2023/12/26 04:05:12;;;;;;;0.00;0.00;;;;;;;7.89;59.61;99440.31;5326648;26;20669;-91
2023/12/26 04:07:38;;;;;;;0.10;0.10;;;;;;;7.74;59.61;99435.50;5326155;26;20102;-90
2023/12/26 04:10:04;;;;;;;0.00;0.00;;;;;;;7.98;59.61;99446.97;5326449;26;20397;-89
2023/12/26 04:12:29;;;;;;;0.43;0.43;;;;;;;7.93;59.62;99446.25;5326167;26;20067;-90
2023/12/26 04:14:55;;;;;;;0.73;0.73;;;;;;;7.89;59.62;99448.09;5326491;26;20098;-90
2023/12/26 04:17:21;;;;;;;1.35;0.95;;;;;;;7.78;59.61;99449.22;5326695;26;20060;-92
2023/12/26 04:19:47;;;;;;;0.17;0.17;;;;;;;7.73;59.61;99432.97;5327203;26;20377;-91
2023/12/26 04:22:12;;;;;;;0.65;0.65;;;;;;;7.70;59.61;99433.88;5345475;26;20442;-91
2023/12/26 04:24:38;;;;;;;0.10;0.10;;;;;;;7.84;59.60;99443.91;5345419;26;20059;-90
2023/12/26 04:27:03;;;;;;;0.22;0.22;;;;;;;7.80;59.61;99444.84;5325708;26;20052;-90
2023/12/26 04:29:29;;;;;;;0.37;0.37;;;;;;;7.81;59.61;99447.44;5326086;26;20087;-90
2023/12/26 04:31:54;;;;;;;1.12;1.05;;;;;;;8.11;59.63;99445.78;5344129;26;32107;-91
2023/12/26 04:34:19;;;;;;;0.00;0.00;;;;;;;7.96;59.61;99449.63;5327604;26;30118;-90
2023/12/26 04:36:45;;;;;;;0.15;0.15;;;;;;;7.97;59.62;99458.25;5343904;26;24046;-90
2023/12/26 04:39:10;;;;;;;10.15;2.67;;;;;;;8.01;59.63;99452.06;5325836;26;20120;-90
2023/12/26 04:41:36;;;;;;;0.08;0.08;;;;;;;7.84;59.60;99449.09;5325918;26;20355;-89
2023/12/26 04:44:02;;;;;;;1.02;1.02;;;;;;;7.70;59.60;99442.50;5345694;26;20100;-91
2023/12/26 04:46:27;;;;;;;0.03;0.03;;;;;;;7.94;59.62;99453.13;5346690;26;20060;-92
2023/12/26 04:48:53;;;;;;;0.25;0.13;;;;;;;8.00;59.63;99461.59;5327230;26;26942;-93
2023/12/26 04:51:19;;;;;;;1.37;0.37;;;;;;;7.93;59.62;99460.06;5328084;26;20055;-92
2023/12/26 04:53:45;;;;;;;0.10;0.10;;;;;;;8.21;59.63;99469.69;5327528;26;20132;-92
2023/12/26 04:56:15;;;;;;;0.20;0.20;;;;;;;8.16;59.63;99475.00;5327984;26;20052;-91
2023/12/26 04:58:41;;;;;;;0.17;0.17;;;;;;;8.11;59.63;99471.69;5346271;26;20842;-92
2023/12/26 05:01:06;;;;;;;0.05;0.05;;;;;;;8.16;59.63;99475.00;5327158;26;20047;-92
2023/12/26 05:03:32;;;;;;;0.47;0.47;;;;;;;8.00;59.63;99477.16;5346131;26;20095;-93
2023/12/26 05:05:57;;;;;;;1.87;0.52;;;;;;;7.86;59.62;99470.62;5327749;26;20068;-92
2023/12/26 05:08:22;;;;;;;0.15;0.15;;;;;;;7.97;59.62;99484.16;5364121;26;20091;-92
2023/12/26 05:10:48;;;;;;;1.10;0.95;;;;;;;7.93;59.62;99478.22;5326896;26;20093;-90
2023/12/26 05:13:13;;;;;;;0.82;0.80;;;;;;;8.09;59.63;99477.81;5325650;26;20122;-91
2023/12/26 05:15:39;;;;;;;0.45;0.45;;;;;;;7.84;59.62;99495.75;5326136;26;21950;-91
2023/12/26 05:18:04;;;;;;;2.58;1.33;;;;;;;7.80;59.61;99489.75;5345581;26;20075;-92
2023/12/26 05:20:30;;;;;;;0.25;0.25;;;;;;;7.95;59.62;99480.75;5327238;26;20082;-92
2023/12/26 05:22:55;;;;;;;0.45;0.40;;;;;;;8.07;59.62;99484.78;5346679;26;20171;-94
2023/12/26 05:25:23;;;;;;;0.73;0.70;;;;;;;7.78;59.61;99470.81;5328185;26;20074;-93
2023/12/26 05:27:48;;;;;;;0.30;0.30;;;;;;;7.73;59.61;99469.22;5328459;26;20124;-93
2023/12/26 05:30:14;;;;;;;2.12;1.98;;;;;;;7.76;59.60;99475.19;5364373;26;25903;-93
2023/12/26 05:32:40;;;;;;;0.45;0.45;;;;;;;7.73;59.60;99477.00;5326193;26;20063;-91
2023/12/26 05:35:06;;;;;;;1.55;1.42;;;;;;;7.70;59.61;99472.75;5328759;26;20156;-91
2023/12/26 05:37:31;;;;;;;0.00;0.00;;;;;;;7.43;59.59;99474.28;5344341;26;20051;-91
2023/12/26 05:39:56;;;;;;;0.00;0.00;;;;;;;7.46;59.59;99478.53;5363657;26;20048;-91
2023/12/26 05:42:23;;;;;;;1.60;1.50;;;;;;;7.37;59.59;99483.03;5307381;26;20365;-91
2023/12/26 05:44:49;;;;;;;0.35;0.35;;;;;;;7.09;59.57;99484.53;5364004;26;20131;-93
2023/12/26 05:47:14;;;;;;;0.10;0.10;;;;;;;7.06;59.57;99474.25;5325494;26;20091;-89
2023/12/26 05:49:40;;;;;;;0.00;0.00;;;;;;;6.75;59.55;99487.00;5365493;26;20087;-93
2023/12/26 05:52:05;;;;;;;0.70;0.70;;;;;;;6.74;59.55;99480.13;5344685;26;20103;-90
2023/12/26 05:54:31;;;;;;;0.35;0.15;;;;;;;6.83;59.56;99479.91;5344961;26;20417;-91
2023/12/26 05:56:56;;;;;;;0.00;0.00;;;;;;;6.71;59.54;99472.44;5327014;26;20123;-92
2023/12/26 05:59:22;;;;;;;2.05;1.45;;;;;;;6.63;59.54;99458.81;5327361;26;20109;-91
2023/12/26 06:01:47;;;;;;;0.37;0.37;;;;;;;6.42;59.54;99463.53;5326408;26;22806;-92
2023/12/26 06:04:12;;;;;;;0.30;0.30;;;;;;;6.37;59.53;99467.06;5326391;26;21014;-91
2023/12/26 06:06:38;;;;;;;0.43;0.37;;;;;;;6.27;59.52;99469.00;5326994;26;20079;-95
2023/12/26 06:09:03;;;;;;;0.00;0.00;;;;;;;6.29;59.53;99469.81;5329238;26;20109;-96
2023/12/26 06:11:29;;;;;;;0.40;0.40;;;;;;;6.30;59.53;99475.84;5329201;26;20106;-96
2023/12/26 06:13:54;;;;;;;0.20;0.20;;;;;;;6.32;59.53;99479.22;5330343;26;20356;-95
2023/12/26 06:16:20;;;;;;;0.00;0.00;;;;;;;6.21;59.53;99487.22;5330006;26;20056;-94
2023/12/26 06:18:45;;;;;;;0.25;0.25;;;;;;;6.24;59.52;99491.47;5329839;26;20136;-95
2023/12/26 06:21:11;;;;;;;0.30;0.30;;;;;;;6.25;59.52;99481.09;5329944;26;20090;-95
2023/12/26 06:23:36;;;;;;;0.70;0.32;;;;;;;6.19;59.52;99481.22;5330307;26;20486;-95
2023/12/26 06:26:02;;;;;;;0.15;0.15;;;;;;;6.16;59.52;99489.03;5329709;26;20100;-95
2023/12/26 06:28:27;;;;;;;0.00;0.00;;;;;;;6.05;59.51;99478.88;5329719;26;20078;-93
2023/12/26 06:30:52;;;;;;;0.05;0.05;;;;;;;6.20;59.52;99487.25;5329995;26;20098;-94
2023/12/26 06:33:19;;;;;;;0.00;0.00;;;;;;;6.24;59.52;99481.97;5330031;26;20123;-94
2023/12/26 06:35:45;;;;;;;0.62;0.62;;;;;;;6.29;59.53;99480.16;5353140;26;20056;-93
2023/12/26 06:38:13;;;;;;;0.20;0.20;;;;;;;6.27;59.52;99484.50;5330243;26;20048;-94
2023/12/26 06:40:42;;;;;;;2.92;2.08;;;;;;;6.24;59.52;99486.28;5330569;26;20063;-93
2023/12/26 06:43:09;;;;;;;1.55;1.45;;;;;;;6.17;59.52;99482.13;5367008;26;20467;-94
2023/12/26 06:45:34;;;;;;;0.40;0.40;;;;;;;6.11;59.51;99481.34;5331659;26;20060;-94
2023/12/26 06:47:59;;;;;;;1.65;0.93;;;;;;;6.16;59.52;99489.03;5329318;26;20099;-93
2023/12/26 06:50:25;;;;;;;0.17;0.17;;;;;;;6.31;59.53;99487.88;5329111;26;20115;-94
2023/12/26 06:52:50;;;;;;;0.00;0.00;;;;;;;6.13;59.53;99489.91;5329649;26;20107;-93
2023/12/26 06:55:16;;;;;;;0.08;0.08;;;;;;;6.29;59.53;99497.41;5329455;26;20083;-94
2023/12/26 06:57:41;;;;;;;0.17;0.17;;;;;;;6.23;59.53;99506.13;5329125;26;20104;-94
2023/12/26 07:00:07;;;;;;;0.00;0.00;;;;;;;6.17;59.52;99502.81;5331299;26;20115;-94
2023/12/26 07:02:34;;;;;;;0.00;0.00;;;;;;;6.17;59.52;99501.06;5329508;26;20059;-94
2023/12/26 07:04:59;;;;;;;6.18;1.12;;;;;;;6.37;59.53;99508.44;5329990;26;20056;-93
2023/12/26 07:07:25;;;;;;;2.40;1.58;;;;;;;6.61;59.55;99523.47;5329331;26;20095;-93
2023/12/26 07:09:50;;;;;;;0.45;0.35;;;;;;;6.45;59.54;99522.09;5329460;26;20060;-93
2023/12/26 07:12:16;;;;;;;0.10;0.10;;;;;;;6.45;59.54;99522.09;5329709;26;20107;-94
2023/12/26 07:14:41;;;;;;;0.00;0.00;;;;;;;6.40;59.53;99516.16;5329870;26;20411;-94
2023/12/26 07:17:06;;;;;;;0.10;0.10;;;;;;;6.55;59.54;99525.34;5329699;26;20089;-93
2023/12/26 07:19:32;;;;;;;0.22;0.22;;;;;;;6.22;59.53;99534.56;5329475;26;20078;-94
2023/12/26 07:21:57;;;;;;;0.10;0.10;;;;;;;6.28;59.52;99531.88;5332166;26;20146;-93
2023/12/26 07:24:23;;;;;;;0.70;0.62;;;;;;;6.30;59.52;99541.31;5329698;26;20055;-94
2023/12/26 07:26:48;;;;;;;4.85;1.10;;;;;;;6.25;59.52;99544.84;5329194;26;20048;-94
2023/12/26 07:29:14;;;;;;;0.20;0.20;;;;;;;6.42;59.54;99548.84;5330855;26;20086;-93
2023/12/26 07:31:39;;;;;;;0.00;0.00;;;;;;;6.31;59.53;99549.91;5330065;26;20063;-93
2023/12/26 07:34:09;;;;;;;0.30;0.30;;;;;;;6.32;59.52;99554.19;5331423;26;20064;-91
2023/12/26 07:36:34;;;;;;;1.50;0.95;;;;;;;6.60;59.55;99552.81;5335285;26;20446;-94
2023/12/26 07:39:00;;;;;;;0.55;0.55;;;;;;;6.45;59.54;99547.94;5329839;26;20072;-94
2023/12/26 07:41:25;;;;;;;0.08;0.08;;;;;;;6.59;59.55;99553.69;5329477;26;20092;-93
2023/12/26 07:43:52;;;;;;;0.52;0.52;;;;;;;6.53;59.54;99563.31;5329263;26;20086;-94
2023/12/26 07:46:18;;;;;;;0.20;0.20;;;;;;;6.33;59.53;99555.91;5330170;26;20067;-94
2023/12/26 07:48:43;;;;;;;0.40;0.40;;;;;;;6.50;59.53;99553.03;5329687;26;20421;-94
2023/12/26 07:51:10;;;;;;;0.13;0.13;;;;;;;6.81;59.56;99554.13;5329701;26;20150;-94
2023/12/26 07:53:36;;;;;;;0.45;0.45;;;;;;;6.95;59.57;99553.84;5330606;26;20406;-94
2023/12/26 07:56:01;;;;;;;0.28;0.28;;;;;;;6.97;59.56;99550.34;5329946;26;20126;-93
2023/12/26 07:58:27;;;;;;;0.20;0.20;;;;;;;6.89;59.56;99557.44;5331645;26;20079;-96
2023/12/26 08:00:52;;;;;;;0.77;0.77;;;;;;;7.07;59.57;99554.44;5349185;26;20357;-95
2023/12/26 08:03:21;;;;;;;2.00;0.98;;;;;;;7.23;59.58;99554.13;5353243;26;20066;-96
2023/12/26 08:05:47;;;;;;;0.55;0.55;;;;;;;7.38;59.58;99544.31;5331241;26;20056;-95
2023/12/26 08:08:12;;;;;;;2.08;1.48;;;;;;;7.51;59.60;99538.81;5329737;26;20641;-96
2023/12/26 08:10:38;;;;;;;0.00;0.00;;;;;;;7.59;59.60;99544.69;5329021;26;20087;-95
2023/12/26 08:13:04;;;;;;;1.75;0.93;;;;;;;8.09;59.63;99547.81;5329904;26;20060;-95
2023/12/26 08:15:30;;;;;;;0.20;0.20;;;;;;;8.19;59.63;99544.94;5331792;26;20433;-95
2023/12/26 08:17:55;;;;;;;0.00;0.00;;;;;;;7.78;59.61;99548.53;5331650;26;20057;-96
2023/12/26 08:20:22;;;;;;;1.73;0.55;;;;;;;7.61;59.60;99561.06;5331377;26;20052;-94
2023/12/26 08:22:47;;;;;;;0.28;0.28;;;;;;;7.69;59.61;99554.81;5329472;26;20100;-94
2023/12/26 08:25:50;;;;;;;0.00;0.00;;;;;;;8.01;59.63;99545.38;5328313;26;20072;-95
2023/12/26 08:28:16;;;;;;;0.00;0.00;;;;;;;8.08;59.63;99553.88;5365836;26;20029;-95
2023/12/26 08:30:41;;;;;;;0.45;0.45;;;;;;;8.16;59.63;99552.78;5368123;26;20083;-94
2023/12/26 08:35:50;;;;;;;2.37;0.88;;;;;;;8.59;59.66;99549.97;5317960;26;20080;31
2023/12/26 08:38:43;;;;;;;1.10;1.10;;;;;;;8.77;59.67;99546.03;5345642;26;20039;-95
2023/12/26 08:41:43;;;;;;;1.02;0.65;;;;;;;8.67;59.66;99534.19;5282848;27;20791;-94
2023/12/26 08:44:09;;;;;;;0.22;0.22;;;;;;;8.80;59.66;99524.31;5258297;27;20053;-95
2023/12/26 08:46:35;;;;;;;0.17;0.17;;;;;;;9.04;59.69;99521.03;5321263;26;20048;-91
2023/12/26 08:49:00;;;;;;;2.87;0.88;;;;;;;9.42;59.71;99514.66;5324856;26;20160;-93
2023/12/26 08:51:27;;;;;;;0.20;0.17;;;;;;;9.33;59.69;99522.72;5325246;26;20400;-93
2023/12/26 08:53:52;;;;;;;2.65;2.45;;;;;;;9.65;59.72;99519.13;5325658;26;20048;-93
2023/12/26 08:56:18;;;;;;;3.40;1.35;;;;;;;9.69;59.72;99512.06;5325372;26;20103;-94
2023/12/26 08:58:43;;;;;;;0.75;0.40;;;;;;;9.62;59.71;99520.97;5325449;26;20115;-94
2023/12/26 09:01:10;;;;;;;0.80;0.68;;;;;;;9.60;59.71;99521.03;5325873;26;20072;-95
2023/12/26 09:03:36;;;;;;;1.20;1.10;;;;;;;9.86;59.72;99527.97;5325709;26;20789;-96
2023/12/26 09:06:01;;;;;;;0.00;0.00;;;;;;;9.96;59.73;99529.41;5325328;26;20048;-93
2023/12/26 09:08:26;;;;;;;0.28;0.28;;;;;;;10.20;59.75;99526.88;5325320;26;20124;-95
2023/12/26 09:10:52;;;;;;;0.03;0.00;;;;;;;10.36;59.75;99539.31;5325646;26;20075;-95
2023/12/26 09:13:20;;;;;;;1.48;0.90;;;;;;;10.45;59.75;99536.41;5324189;26;20142;-96
2023/12/26 09:15:49;;;;;;;0.00;0.00;;;;;;;10.55;59.77;99526.53;5324353;26;20061;-95
2023/12/26 09:18:16;;;;;;;0.22;0.22;;;;;;;10.78;59.78;99530.91;5324209;26;20080;-96
2023/12/26 09:20:41;;;;;;;0.00;0.00;;;;;;;10.87;59.78;99529.72;5320050;26;20441;-95
2023/12/26 09:23:07;;;;;;;0.00;0.00;;;;;;;11.05;59.79;99523.81;5319862;27;20116;-95
2023/12/26 09:25:32;;;;;;;0.45;0.45;;;;;;;11.00;59.79;99517.94;5301055;27;26270;-96
2023/12/26 09:27:59;;;;;;;0.00;0.00;;;;;;;11.17;59.79;99527.75;5319864;27;20096;-95
2023/12/26 09:30:24;;;;;;;0.00;0.00;;;;;;;11.28;59.80;99530.78;5320021;27;20072;-95
2023/12/26 09:32:50;;;;;;;0.08;0.08;;;;;;;11.33;59.80;99534.88;5300819;27;30502;-96
2023/12/26 09:35:15;;;;;;;0.00;0.00;;;;;;;11.29;59.79;99546.34;5307533;27;20084;-96
2023/12/26 09:37:40;;;;;;;0.00;0.00;;;;;;;11.38;59.81;99558.19;5301242;27;20113;-96
2023/12/26 09:40:10;;;;;;;0.20;0.20;;;;;;;11.45;59.80;99554.44;5319016;27;20092;-96
2023/12/26 09:42:35;;;;;;;0.00;0.00;;;;;;;11.40;59.81;99558.97;5320476;26;20070;-96
2023/12/26 09:45:03;;;;;;;0.05;0.05;;;;;;;11.46;59.82;99563.09;5319461;27;20122;-95
2023/12/26 09:47:29;;;;;;;0.25;0.25;;;;;;;11.55;59.81;99555.75;5320734;26;20084;-96
2023/12/26 09:49:54;;;;;;;0.20;0.20;;;;;;;11.35;59.80;99553.91;5320381;27;20512;-96
2023/12/26 09:52:21;;;;;;;0.10;0.10;;;;;;;11.28;59.80;99557.69;5321445;27;20052;-95
2023/12/26 09:54:46;;;;;;;0.03;0.03;;;;;;;11.48;59.81;99558.69;5302971;26;20095;-96
2023/12/26 09:57:12;;;;;;;0.00;0.00;;;;;;;11.57;59.82;99564.38;5301817;27;23318;-96
2023/12/26 09:59:38;;;;;;;0.20;0.20;;;;;;;11.63;59.82;99556.34;5320796;27;20433;-96
2023/12/26 10:02:04;;;;;;;0.40;0.40;;;;;;;11.69;59.82;99552.63;5321297;26;20912;-96
2023/12/26 10:04:30;;;;;;;0.80;0.55;;;;;;;11.56;59.81;99562.66;5302586;27;20060;-96
2023/12/26 10:06:55;;;;;;;0.28;0.28;;;;;;;11.49;59.81;99560.38;5321082;27;20141;-96
2023/12/26 10:09:21;;;;;;;0.22;0.22;;;;;;;11.31;59.80;99564.53;5320759;27;20076;-96
2023/12/26 10:11:46;;;;;;;1.30;0.98;;;;;;;11.42;59.81;99564.97;5320543;27;20159;-96
2023/12/26 10:14:12;;;;;;;3.50;1.00;;;;;;;11.21;59.80;99555.38;5302332;27;20060;-96
2023/12/26 10:16:37;;;;;;;0.55;0.55;;;;;;;11.25;59.80;99551.75;5320785;27;20088;-94
2023/12/26 10:19:02;;;;;;;0.22;0.22;;;;;;;11.02;59.79;99556.03;5301651;27;23037;-96
2023/12/26 10:21:28;;;;;;;0.20;0.20;;;;;;;10.96;59.78;99561.50;5320576;27;20049;-96
2023/12/26 10:23:55;;;;;;;0.17;0.10;;;;;;;10.99;59.79;99557.91;5302730;26;20384;-95
2023/12/26 10:26:20;;;;;;;0.62;0.62;;;;;;;11.04;59.78;99553.38;5302241;27;20037;-96
2023/12/26 10:28:46;;;;;;;0.15;0.15;;;;;;;10.87;59.78;99537.53;5302587;27;20103;-96
2023/12/26 10:31:17;;;;;;;2.97;1.20;;;;;;;10.83;59.77;99539.41;5320696;26;20071;-95
2023/12/26 10:33:43;;;;;;;0.32;0.32;;;;;;;11.03;59.79;99536.06;5307610;26;20040;-94
2023/12/26 10:36:10;;;;;;;0.47;0.47;;;;;;;11.29;59.80;99530.72;5320954;26;20061;-96
2023/12/26 10:38:36;;;;;;;2.50;0.40;;;;;;;11.01;59.79;99515.28;5320753;26;20073;-96
2023/12/26 10:41:07;;;;;;;0.55;0.55;;;;;;;10.82;59.77;99526.44;5320748;27;20071;-95
2023/12/26 10:43:32;;;;;;;0.25;0.25;;;;;;;10.82;59.78;99529.03;5302475;26;20071;-95
2023/12/26 10:45:58;;;;;;;0.22;0.22;;;;;;;11.04;59.78;99535.16;5319887;27;24635;-95
2023/12/26 10:48:33;;;;;;;0.30;0.30;;;;;;;10.99;59.79;99530.13;5302858;27;20512;-96
2023/12/26 10:51:01;;;;;;;0.20;0.20;;;;;;;11.15;59.79;99537.38;5302920;27;20049;-96
2023/12/26 10:53:53;;;;;;;0.75;0.47;;;;;;;11.12;59.79;99520.09;5320891;26;20076;-96
2023/12/26 10:56:19;;;;;;;0.00;0.00;;;;;;;11.18;59.79;99529.44;5321401;27;20753;-94
2023/12/26 10:58:44;;;;;;;2.72;1.37;;;;;;;11.03;59.78;99516.06;5320355;27;20079;-95
2023/12/26 11:01:10;;;;;;;0.98;0.98;;;;;;;11.04;59.78;99519.53;5320620;27;20083;-96
2023/12/26 11:03:35;;;;;;;0.40;0.40;;;;;;;11.27;59.80;99519.50;5320639;27;20075;-96
2023/12/26 11:06:01;;;;;;;0.37;0.37;;;;;;;11.40;59.81;99509.47;5321147;27;20091;-95
2023/12/26 11:08:26;;;;;;;0.95;0.80;;;;;;;11.63;59.82;99516.38;5320551;27;20135;-95
2023/12/26 11:10:52;;;;;;;0.77;0.55;;;;;;;11.59;59.83;99510.44;5320403;27;20068;-96
2023/12/26 11:13:17;;;;;;;1.20;1.08;;;;;;;11.41;59.81;99526.81;5321003;27;20049;-96
2023/12/26 11:15:43;;;;;;;0.05;0.05;;;;;;;11.53;59.82;99521.09;5321374;27;20134;-96
2023/12/26 11:18:08;;;;;;;0.90;0.55;;;;;;;11.38;59.81;99524.31;5302087;27;20061;-95
2023/12/26 11:20:34;;;;;;;0.90;0.50;;;;;;;11.55;59.82;99521.87;5320788;27;20057;-95
2023/12/26 11:22:59;;;;;;;1.00;0.90;;;;;;;11.49;59.81;99518.66;5302151;27;20076;-96
2023/12/26 11:25:24;;;;;;;0.10;0.10;;;;;;;11.24;59.80;99498.78;5320577;27;20129;-96
2023/12/26 11:27:50;;;;;;;0.50;0.50;;;;;;;11.42;59.81;99492.00;5320169;27;20088;-96
2023/12/26 11:30:15;;;;;;;1.65;0.65;;;;;;;11.23;59.80;99504.91;5320848;27;20075;-96
2023/12/26 11:32:41;;;;;;;1.08;1.00;;;;;;;11.78;59.83;99525.31;5308501;27;20080;-96
2023/12/26 11:35:06;;;;;;;0.55;0.55;;;;;;;11.50;59.81;99523.81;5302753;27;20163;-96
2023/12/26 11:37:32;;;;;;;4.78;1.95;;;;;;;11.53;59.82;99504.59;5320997;26;20599;-95
2023/12/26 11:39:57;;;;;;;0.65;0.65;;;;;;;11.45;59.80;99506.66;5302018;27;21306;-95